| time (UTC) | temp C | wind direction | speed KPH | gust KPH | rain 1hr cm | rain 24hr cm | rain mn cm | humidity % | barometer mb |
| 20260508111128 | 7 | 225 | 19.3 | 24.1 | 0.00 | 0.00 | 0.00 | 61 | 1009.6 |
| 20260508110128 | 7 | 225 | 17.7 | 19.3 | 0.00 | 0.00 | 0.00 | 62 | 1009.6 |
| 20260508104127 | 6 | 225 | 12.9 | 12.9 | 0.00 | 0.00 | 0.00 | 65 | 1009.5 |
| 20260508103226 | 6 | 225 | 11.3 | 12.9 | 0.00 | 0.00 | 0.00 | 64 | 1009.2 |
| 20260508102227 | 5 | 225 | 11.3 | 12.9 | 0.00 | 0.00 | 0.00 | 70 | 1009.1 |
| 20260508101226 | 5 | 270 | 4.8 | 8.0 | 0.00 | 0.00 | 0.00 | 70 | 1008.9 |
| 20260508100228 | 5 | 270 | 3.2 | 6.4 | 0.00 | 0.00 | 0.00 | 71 | 1008.9 |
| 20260508095227 | 5 | 235 | 6.4 | 11.3 | 0.00 | 0.00 | 0.00 | 69 | 1008.8 |
| 20260508093326 | 5 | 252 | 4.8 | 6.4 | 0.00 | 0.00 | 0.00 | 67 | 1008.7 |
| 20260508092328 | 6 | 225 | 12.9 | 14.5 | 0.00 | 0.00 | 0.00 | 64 | 1008.5 |
| 20260508090327 | 5 | 225 | 12.9 | 14.5 | 0.00 | 0.00 | 0.00 | 69 | 1008.3 |
| 20260508084428 | 5 | 270 | 1.6 | 4.8 | 0.00 | 0.00 | 0.00 | 68 | 1008.2 |
| 20260508083428 | 5 | 270 | 6.4 | 11.3 | 0.00 | 0.00 | 0.00 | 69 | 1008.2 |
| 20260508082527 | 5 | 255 | 8.0 | 16.1 | 0.00 | 0.00 | 0.00 | 71 | 1008.3 |
| 20260508080527 | 5 | 270 | 1.6 | 6.4 | 0.00 | 0.00 | 0.00 | 67 | 1008.4 |
| 20260508075529 | 6 | 257 | 3.2 | 6.4 | 0.00 | 0.00 | 0.00 | 64 | 1008.3 |
| 20260508074528 | 6 | 225 | 12.9 | 14.5 | 0.00 | 0.00 | 0.00 | 64 | 1008.1 |
| 20260508072530 | 6 | 270 | 4.8 | 8.0 | 0.00 | 0.00 | 0.00 | 67 | 1008.0 |
| 20260508071530 | 6 | 225 | 11.3 | 12.9 | 0.00 | 0.00 | 0.00 | 65 | 1008.0 |
| 20260508070529 | 6 | 225 | 14.5 | 14.5 | 0.00 | 0.03 | 0.00 | 63 | 1008.1 |
| 20260508065527 | 6 | 225 | 16.1 | 17.7 | 0.00 | 0.03 | 0.00 | 61 | 1008.0 |
| 20260508064529 | 7 | 225 | 16.1 | 17.7 | 0.00 | 0.03 | 0.00 | 60 | 1008.0 |
| 20260508063628 | 7 | 225 | 14.5 | 17.7 | 0.00 | 0.03 | 0.00 | 61 | 1008.2 |
| 20260508062627 | 7 | 225 | 11.3 | 12.9 | 0.00 | 0.03 | 0.00 | 62 | 1008.3 |
| 20260508061627 | 7 | 225 | 12.9 | 14.5 | 0.00 | 0.03 | 0.00 | 62 | 1008.2 |
| 20260508060627 | 6 | 225 | 14.5 | 17.7 | 0.00 | 0.05 | 0.00 | 65 | 1008.2 |
| 20260508055628 | 6 | 270 | 1.6 | 3.2 | 0.00 | 0.25 | 0.00 | 66 | 1008.5 |
| 20260508054726 | 6 | 270 | 3.2 | 4.8 | 0.00 | 0.61 | 0.00 | 67 | 1008.6 |
| 20260508053730 | 7 | 270 | 0.0 | 1.6 | 0.00 | 0.69 | 0.00 | 65 | 1008.7 |
| 20260508052728 | 7 | 225 | 12.9 | 14.5 | 0.00 | 0.69 | 0.00 | 60 | 1008.5 |
| 20260508044027 | 7 | 277 | 3.2 | 4.8 | 0.00 | 0.69 | 0.00 | 60 | 1008.9 |
| 20260508043028 | 7 | 225 | 9.7 | 14.5 | 0.00 | 0.69 | 0.00 | 60 | 1009.0 |
| 20260508042127 | 7 | 239 | 8.0 | 11.3 | 0.00 | 0.69 | 0.00 | 62 | 1008.8 |
| 20260508041129 | 7 | 225 | 6.4 | 8.0 | 0.00 | 0.69 | 0.00 | 62 | 1009.0 |
| 20260508040128 | 7 | 254 | 4.8 | 9.7 | 0.00 | 0.69 | 0.00 | 63 | 1009.0 |
| 20260508035123 | 8 | 233 | 6.4 | 9.7 | 0.00 | 0.69 | 0.69 | 58 | 1009.1 |
| 20260508034222 | 8 | 225 | 11.3 | 14.5 | 0.00 | 0.69 | 0.69 | 54 | 1009.1 |
| 20260508033226 | 8 | 225 | 11.3 | 14.5 | 0.00 | 0.69 | 0.69 | 54 | 1009.3 |
| 20260508032223 | 8 | 267 | 8.0 | 11.3 | 0.00 | 0.69 | 0.69 | 53 | 1009.1 |
| 20260508031222 | 8 | 247 | 6.4 | 8.0 | 0.00 | 0.69 | 0.69 | 50 | 1009.1 |
| 20260508030223 | 8 | 270 | 8.0 | 11.3 | 0.00 | 0.71 | 0.69 | 52 | 1009.1 |
| 20260508025225 | 8 | 252 | 8.0 | 11.3 | 0.00 | 0.71 | 0.69 | 55 | 1008.9 |
| 20260508024225 | 9 | 269 | 4.8 | 6.4 | 0.00 | 0.76 | 0.69 | 56 | 1008.9 |
| 20260508021324 | 10 | 263 | 12.9 | 17.7 | 0.00 | 0.97 | 0.69 | 47 | 1008.8 |
| 20260508020322 | 10 | 266 | 11.3 | 14.5 | 0.00 | 1.04 | 0.69 | 46 | 1009.0 |
| 20260508015324 | 10 | 251 | 17.7 | 22.5 | 0.00 | 1.22 | 0.69 | 48 | 1009.1 |
| 20260508013324 | 10 | 258 | 16.1 | 25.7 | 0.00 | 1.37 | 0.69 | 48 | 1009.0 |
| 20260508012422 | 10 | 249 | 24.1 | 30.6 | 0.00 | 1.45 | 0.69 | 48 | 1008.8 |
| 20260508011425 | 11 | 249 | 17.7 | 22.5 | 0.00 | 1.50 | 0.69 | 48 | 1008.8 |
| 20260508005523 | 11 | 255 | 22.5 | 25.7 | 0.00 | 1.63 | 0.69 | 50 | 1008.5 |
| 20260508004622 | 11 | 260 | 22.5 | 29.0 | 0.00 | 1.63 | 0.69 | 56 | 1008.5 |
| 20260508003624 | 11 | 270 | 9.7 | 14.5 | 0.00 | 1.70 | 0.69 | 62 | 1008.3 |
| 20260508002623 | 10 | 247 | 6.4 | 11.3 | 0.00 | 1.83 | 0.69 | 77 | 1008.0 |
| 20260508001623 | 10 | 225 | 9.7 | 11.3 | 0.00 | 1.93 | 0.69 | 77 | 1007.9 |
| 20260508000624 | 10 | 198 | 4.8 | 6.4 | 0.00 | 2.06 | 0.69 | 76 | 1007.7 |
| 20260507235623 | 10 | 180 | 4.8 | 4.8 | 0.00 | 2.24 | 0.69 | 76 | 1007.6 |
| 20260507234624 | 10 | 180 | 1.6 | 3.2 | 0.00 | 2.26 | 0.69 | 77 | 1007.4 |
| 20260507233624 | 10 | 90 | 4.8 | 4.8 | 0.00 | 2.29 | 0.69 | 76 | 1007.1 |
| 20260507232625 | 10 | 90 | 8.0 | 9.7 | 0.00 | 2.31 | 0.69 | 76 | 1007.0 |
| 20260507231624 | 10 | 90 | 9.7 | 11.3 | 0.00 | 2.31 | 0.69 | 75 | 1006.9 |
| 20260507230623 | 10 | 90 | 14.5 | 16.1 | 0.00 | 2.31 | 0.69 | 75 | 1006.8 |
| 20260507225622 | 10 | 90 | 11.3 | 12.9 | 0.00 | 2.34 | 0.69 | 74 | 1006.7 |
| 20260507224623 | 9 | 67 | 12.9 | 14.5 | 0.00 | 2.34 | 0.69 | 76 | 1006.4 |
| 20260507223624 | 10 | 67 | 12.9 | 14.5 | 0.00 | 2.36 | 0.69 | 76 | 1006.3 |
| 20260507222625 | 10 | 90 | 8.0 | 8.0 | 0.00 | 2.39 | 0.69 | 75 | 1006.4 |
| 20260507221624 | 10 | 90 | 11.3 | 12.9 | 0.00 | 2.41 | 0.69 | 75 | 1006.2 |
| 20260507220626 | 10 | 90 | 11.3 | 12.9 | 0.00 | 2.44 | 0.69 | 74 | 1006.5 |
| 20260507215623 | 10 | 90 | 11.3 | 14.5 | 0.00 | 2.46 | 0.69 | 74 | 1006.6 |
| 20260507214623 | 10 | 90 | 12.9 | 14.5 | 0.00 | 2.49 | 0.69 | 73 | 1006.6 |
| 20260507213623 | 11 | 90 | 14.5 | 19.3 | 0.00 | 2.49 | 0.69 | 72 | 1006.6 |
| 20260507212624 | 11 | 128 | 14.5 | 16.1 | 0.00 | 2.49 | 0.69 | 70 | 1006.7 |
| 20260507211622 | 11 | 135 | 12.9 | 16.1 | 0.00 | 2.49 | 0.69 | 70 | 1006.8 |
| 20260507210623 | 11 | 112 | 19.3 | 20.9 | 0.00 | 2.49 | 0.69 | 69 | 1006.6 |
| 20260507204724 | 11 | 111 | 17.7 | 19.3 | 0.00 | 2.49 | 0.69 | 70 | 1006.5 |
| 20260507203822 | 11 | 116 | 14.5 | 17.7 | 0.00 | 2.49 | 0.69 | 69 | 1006.5 |
| 20260507202826 | 11 | 126 | 17.7 | 20.9 | 0.00 | 2.49 | 0.69 | 69 | 1006.4 |
| 20260507201823 | 11 | 113 | 20.9 | 24.1 | 0.00 | 2.49 | 0.69 | 66 | 1006.4 |
| 20260507200823 | 11 | 131 | 22.5 | 27.4 | 0.00 | 2.49 | 0.69 | 66 | 1006.4 |
| 20260507195822 | 11 | 125 | 25.7 | 30.6 | 0.00 | 2.49 | 0.69 | 67 | 1006.4 |
| 20260507194822 | 11 | 132 | 27.4 | 30.6 | 0.00 | 2.49 | 0.69 | 67 | 1006.6 |
| 20260507193823 | 11 | 131 | 25.7 | 30.6 | 0.00 | 2.49 | 0.69 | 65 | 1006.5 |
| 20260507191922 | 11 | 123 | 24.1 | 27.4 | 0.00 | 2.49 | 0.69 | 67 | 1006.5 |
| 20260507190923 | 11 | 135 | 24.1 | 29.0 | 0.00 | 2.49 | 0.69 | 69 | 1006.5 |
| 20260507185924 | 11 | 135 | 29.0 | 35.4 | 0.00 | 2.49 | 0.69 | 69 | 1006.5 |
| 20260507185022 | 12 | 131 | 25.7 | 29.0 | 0.00 | 2.49 | 0.69 | 69 | 1006.5 |
| 20260507184023 | 12 | 119 | 22.5 | 29.0 | 0.00 | 2.49 | 0.69 | 70 | 1006.6 |
| 20260507183122 | 12 | 126 | 22.5 | 25.7 | 0.00 | 2.49 | 0.69 | 71 | 1006.6 |
| 20260507182124 | 12 | 113 | 24.1 | 27.4 | 0.00 | 2.49 | 0.69 | 70 | 1006.8 |
| 20260507181122 | 12 | 115 | 24.1 | 25.7 | 0.00 | 2.49 | 0.69 | 71 | 1006.8 |
| 20260507180123 | 12 | 131 | 24.1 | 27.4 | 0.00 | 2.49 | 0.69 | 68 | 1006.6 |
| 20260507175123 | 12 | 135 | 19.3 | 27.4 | 0.00 | 2.49 | 0.69 | 69 | 1006.9 |
| 20260507174125 | 12 | 126 | 12.9 | 16.1 | 0.00 | 2.49 | 0.69 | 71 | 1006.9 |
| 20260507173125 | 12 | 135 | 16.1 | 19.3 | 0.00 | 2.49 | 0.69 | 70 | 1006.8 |
| 20260507172222 | 12 | 135 | 16.1 | 17.7 | 0.00 | 2.49 | 0.69 | 70 | 1006.9 |
| 20260507171222 | 11 | 135 | 16.1 | 17.7 | 0.00 | 2.49 | 0.69 | 71 | 1007.0 |
| 20260507170224 | 11 | 135 | 14.5 | 16.1 | 0.00 | 2.49 | 0.69 | 71 | 1007.0 |
| 20260507165225 | 11 | 135 | 16.1 | 17.7 | 0.00 | 2.49 | 0.69 | 70 | 1007.1 |
| 20260507164323 | 11 | 135 | 14.5 | 16.1 | 0.00 | 2.49 | 0.69 | 70 | 1007.2 |
| 20260507163323 | 11 | 135 | 12.9 | 14.5 | 0.00 | 2.49 | 0.69 | 70 | 1007.3 |
| 20260507161424 | 12 | 135 | 12.9 | 14.5 | 0.00 | 2.49 | 0.69 | 64 | 1007.5 |
| 20260507160522 | 12 | 135 | 6.4 | 8.0 | 0.00 | 2.49 | 0.69 | 60 | 1007.5 |
| 20260507155524 | 12 | 135 | 4.8 | 6.4 | 0.00 | 2.49 | 0.69 | 63 | 1007.6 |
| 20260507151725 | 11 | 135 | 9.7 | 11.3 | 0.00 | 2.49 | 0.69 | 69 | 1008.1 |
| 20260507145825 | 11 | 135 | 8.0 | 8.0 | 0.00 | 2.49 | 0.69 | 68 | 1008.1 |
| 20260507143825 | 11 | 180 | 6.4 | 6.4 | 0.00 | 2.49 | 0.69 | 69 | 1008.4 |
| 20260507142825 | 11 | 180 | 4.8 | 4.8 | 0.00 | 2.49 | 0.69 | 69 | 1008.5 |
| 20260507141824 | 11 | 180 | 3.2 | 4.8 | 0.00 | 2.49 | 0.69 | 70 | 1008.6 |
| 20260507140823 | 11 | 202 | 4.8 | 4.8 | 0.00 | 2.49 | 0.69 | 71 | 1008.6 |
| 20260507135824 | 10 | 225 | 4.8 | 4.8 | 0.00 | 2.49 | 0.69 | 71 | 1008.7 |
| 20260507134922 | 10 | 231 | 8.0 | 9.7 | 0.00 | 2.49 | 0.69 | 72 | 1008.6 |
| 20260507132023 | 10 | 246 | 8.0 | 9.7 | 0.00 | 2.49 | 0.69 | 76 | 1009.2 |
| 20260507131025 | 10 | 270 | 8.0 | 11.3 | 0.00 | 2.49 | 0.69 | 77 | 1008.7 |
| 20260507130124 | 9 | 238 | 8.0 | 11.3 | 0.00 | 2.49 | 0.69 | 77 | 1008.9 |
| 20260507125222 | 9 | 233 | 9.7 | 11.3 | 0.00 | 2.49 | 0.69 | 77 | 1008.9 |
| 20260507123223 | 8 | 248 | 11.3 | 14.5 | 0.00 | 2.49 | 0.69 | 80 | 1008.4 |
| 20260507122223 | 8 | 257 | 11.3 | 14.5 | 0.00 | 2.49 | 0.69 | 80 | 1008.4 |
| 20260507121222 | 8 | 247 | 9.7 | 11.3 | 0.00 | 2.49 | 0.69 | 79 | 1008.5 |
| 20260507120322 | 8 | 358 | 1.6 | 4.8 | 0.00 | 2.49 | 0.69 | 80 | 1008.0 |
| 20260507114323 | 8 | 247 | 11.3 | 14.5 | 0.00 | 2.49 | 0.69 | 81 | 1008.6 |
| 20260507113324 | 8 | 225 | 11.3 | 12.9 | 0.00 | 2.49 | 0.69 | 79 | 1009.4 |
| 20260507112324 | 8 | 225 | 8.0 | 9.7 | 0.00 | 2.49 | 0.69 | 81 | 1009.1 |